createdAt,value
2018-12-01T00:00:49.500Z,9.50
2018-12-01T00:01:49.495Z,9.52
2018-12-01T00:02:49.489Z,9.45
2018-12-01T00:03:49.474Z,9.45
2018-12-01T00:04:49.466Z,9.49
2018-12-01T00:05:49.452Z,9.42
2018-12-01T00:06:49.448Z,9.42
2018-12-01T00:07:49.432Z,9.41
2018-12-01T00:08:49.426Z,9.42
2018-12-01T00:09:49.417Z,9.42
2018-12-01T00:10:49.414Z,9.44
2018-12-01T00:11:49.399Z,9.40
2018-12-01T00:12:49.393Z,9.38
2018-12-01T00:13:49.376Z,9.37
2018-12-01T00:14:49.366Z,9.34
2018-12-01T00:15:49.362Z,9.35
2018-12-01T00:16:49.352Z,9.38
2018-12-01T00:17:49.337Z,9.34
2018-12-01T00:18:49.329Z,9.41
2018-12-01T00:19:49.318Z,9.40
2018-12-01T00:20:49.309Z,9.42
2018-12-01T00:21:49.304Z,9.41
2018-12-01T00:22:49.295Z,9.41
2018-12-01T00:23:49.319Z,9.37
2018-12-01T00:24:49.275Z,9.35
2018-12-01T00:25:49.261Z,9.38
2018-12-01T00:26:49.251Z,9.37
2018-12-01T00:27:49.250Z,9.38
2018-12-01T00:28:49.232Z,9.42
2018-12-01T00:29:49.228Z,9.38
2018-12-01T00:30:49.218Z,9.40
2018-12-01T00:31:49.203Z,9.37
2018-12-01T00:32:49.197Z,9.40
2018-12-01T00:33:49.189Z,9.38
2018-12-01T00:34:49.180Z,9.41
2018-12-01T00:35:49.216Z,9.37
2018-12-01T00:36:49.160Z,9.44
2018-12-01T00:37:49.145Z,9.40
2018-12-01T00:38:49.180Z,9.37
2018-12-01T00:39:49.125Z,9.37
2018-12-01T00:40:49.116Z,9.37
2018-12-01T00:41:49.111Z,9.37
2018-12-01T00:42:49.101Z,9.30
2018-12-01T00:43:49.091Z,9.35
2018-12-01T00:44:49.086Z,9.40
2018-12-01T00:45:49.067Z,9.38
2018-12-01T00:46:49.060Z,9.27
2018-12-01T00:47:49.052Z,9.32
2018-12-01T00:48:49.044Z,9.27
2018-12-01T00:49:49.029Z,9.31
2018-12-01T00:50:49.019Z,9.23
2018-12-01T00:51:49.011Z,9.20
2018-12-01T00:52:48.999Z,9.22
2018-12-01T00:53:48.993Z,9.26
2018-12-01T00:54:48.988Z,9.26
2018-12-01T00:55:48.973Z,9.19
2018-12-01T00:56:48.963Z,9.17
2018-12-01T00:57:48.950Z,9.17
2018-12-01T00:58:48.940Z,9.16
2018-12-01T00:59:48.933Z,9.17
2018-12-01T01:00:48.921Z,9.27
2018-12-01T01:01:48.916Z,9.32
2018-12-01T01:02:48.906Z,9.27
2018-12-01T01:03:48.892Z,9.17
2018-12-01T01:04:49.329Z,9.27
2018-12-01T01:05:48.877Z,9.19
2018-12-01T01:06:48.866Z,9.16
2018-12-01T01:07:48.861Z,9.17
2018-12-01T01:08:48.849Z,9.13
2018-12-01T01:09:48.832Z,9.16
2018-12-01T01:10:48.823Z,9.16
2018-12-01T01:11:48.813Z,9.16
2018-12-01T01:12:48.802Z,9.15
2018-12-01T01:13:48.798Z,9.17
2018-12-01T01:14:48.789Z,9.15
2018-12-01T01:15:48.777Z,9.15
2018-12-01T01:16:48.768Z,9.16
2018-12-01T01:17:48.754Z,9.20
2018-12-01T01:18:48.745Z,9.22
2018-12-01T01:19:48.737Z,9.16
2018-12-01T01:20:48.727Z,9.22
2018-12-01T01:21:48.721Z,9.16
2018-12-01T01:22:48.705Z,9.19
2018-12-01T01:23:48.698Z,9.16
2018-12-01T01:24:48.684Z,9.16
2018-12-01T01:25:48.680Z,9.17
2018-12-01T01:26:48.670Z,9.19
2018-12-01T01:27:48.666Z,9.20
2018-12-01T01:28:48.650Z,9.13
2018-12-01T01:29:48.636Z,9.19
2018-12-01T01:30:48.626Z,9.17
2018-12-01T01:31:48.616Z,9.20
2018-12-01T01:32:48.605Z,9.15
2018-12-01T01:33:48.601Z,9.19
2018-12-01T01:34:48.592Z,9.12
2018-12-01T01:35:48.575Z,9.19
2018-12-01T01:36:48.566Z,9.03
2018-12-01T01:37:48.560Z,9.12
2018-12-01T01:38:48.553Z,9.15
2018-12-01T01:39:48.542Z,9.08
2018-12-01T01:40:48.535Z,9.22
2018-12-01T01:41:48.517Z,9.04
2018-12-01T01:42:48.508Z,9.08
2018-12-01T01:43:48.497Z,9.10
2018-12-01T01:44:48.488Z,9.10
2018-12-01T01:45:48.483Z,9.22
2018-12-01T01:46:48.474Z,9.04
2018-12-01T01:47:48.462Z,9.12
2018-12-01T01:48:48.453Z,9.13
2018-12-01T01:49:48.440Z,9.13
2018-12-01T01:50:48.431Z,9.08
2018-12-01T01:51:48.423Z,9.13
2018-12-01T01:52:48.414Z,9.06
2018-12-01T01:53:48.401Z,9.10
2018-12-01T01:54:48.391Z,9.12
2018-12-01T01:55:48.383Z,9.03
2018-12-01T01:56:48.372Z,9.01
2018-12-01T01:57:48.368Z,8.97
2018-12-01T01:58:48.358Z,9.06
2018-12-01T01:59:48.346Z,9.08
2018-12-01T02:00:48.337Z,9.12
2018-12-01T02:01:48.328Z,9.08
2018-12-01T02:02:48.313Z,9.08
2018-12-01T02:03:48.303Z,9.06
2018-12-01T02:04:48.295Z,9.19
2018-12-01T02:05:48.290Z,9.15
2018-12-01T02:06:48.278Z,9.15
2018-12-01T02:07:48.263Z,9.16
2018-12-01T02:08:48.253Z,9.13
2018-12-01T02:09:48.248Z,9.27
2018-12-01T02:10:48.239Z,9.31
2018-12-01T02:11:48.230Z,9.24
2018-12-01T02:12:48.220Z,9.24
2018-12-01T02:13:48.206Z,9.24
2018-12-01T02:14:48.196Z,9.23
2018-12-01T02:15:48.190Z,9.26
2018-12-01T02:16:48.181Z,9.26
2018-12-01T02:17:48.166Z,9.31
2018-12-01T02:18:48.157Z,9.30
2018-12-01T02:19:48.153Z,9.27
2018-12-01T02:20:48.138Z,9.31
2018-12-01T02:21:48.134Z,9.30
2018-12-01T02:22:48.125Z,9.26
2018-12-01T02:23:48.109Z,9.26
2018-12-01T02:24:48.101Z,9.26
2018-12-01T02:25:48.094Z,9.24
2018-12-01T02:26:48.088Z,9.27
2018-12-01T02:27:48.074Z,9.26
2018-12-01T02:28:48.067Z,9.27
2018-12-01T02:29:48.055Z,9.32
2018-12-01T02:30:48.049Z,9.31
2018-12-01T02:31:48.034Z,9.32
2018-12-01T02:32:48.033Z,9.27
2018-12-01T02:33:48.021Z,9.27
2018-12-01T02:34:48.009Z,9.23
2018-12-01T02:35:48.001Z,9.31
2018-12-01T02:36:47.992Z,9.27
2018-12-01T02:37:47.978Z,9.30
2018-12-01T02:38:47.970Z,9.32
2018-12-01T02:39:47.963Z,9.24
2018-12-01T02:40:47.954Z,9.27
2018-12-01T02:41:47.939Z,9.27
2018-12-01T02:42:47.930Z,9.24
2018-12-01T02:43:47.922Z,9.16
2018-12-01T02:44:47.911Z,9.17
2018-12-01T02:45:47.910Z,9.17
2018-12-01T02:46:47.896Z,9.17
2018-12-01T02:47:47.886Z,9.04
2018-12-01T02:48:47.880Z,9.10
2018-12-01T02:49:47.863Z,9.06
2018-12-01T02:50:47.858Z,9.01
2018-12-01T02:51:47.845Z,9.03
2018-12-01T02:52:47.836Z,9.00
2018-12-01T02:53:47.831Z,9.04
2018-12-01T02:54:47.821Z,8.94
2018-12-01T02:55:47.806Z,8.94
2018-12-01T02:56:47.796Z,8.85
2018-12-01T02:57:47.798Z,8.86
2018-12-01T02:58:47.785Z,8.88
2018-12-01T02:59:47.772Z,8.93
2018-12-01T03:00:47.767Z,8.83
2018-12-01T03:01:47.748Z,8.80
2018-12-01T03:02:47.738Z,8.88
2018-12-01T03:03:47.727Z,8.76
2018-12-01T03:04:47.718Z,8.73
2018-12-01T03:05:47.714Z,8.79
2018-12-01T03:06:47.703Z,8.80
2018-12-01T03:07:47.693Z,8.78
2018-12-01T03:08:47.683Z,8.78
2018-12-01T03:09:47.669Z,8.79
2018-12-01T03:10:47.661Z,8.79
2018-12-01T03:11:47.655Z,8.79
2018-12-01T03:12:47.645Z,8.73
2018-12-01T03:13:47.630Z,8.79
2018-12-01T03:14:47.621Z,8.83
2018-12-01T03:15:47.609Z,8.80
2018-12-01T03:16:47.601Z,8.73
2018-12-01T03:17:47.595Z,8.79
2018-12-01T03:18:47.584Z,8.79
2018-12-01T03:19:47.576Z,8.86
2018-12-01T03:20:47.570Z,8.85
2018-12-01T03:21:47.554Z,8.80
2018-12-01T03:22:47.541Z,8.85
2018-12-01T03:23:47.532Z,8.82
2018-12-01T03:24:47.520Z,8.83
2018-12-01T03:25:47.515Z,8.88
2018-12-01T03:26:47.505Z,8.93
2018-12-01T03:27:47.491Z,8.85
2018-12-01T03:28:47.490Z,8.88
2018-12-01T03:29:47.475Z,8.93
2018-12-01T03:30:47.466Z,8.82
2018-12-01T03:31:47.459Z,8.88
2018-12-01T03:32:47.450Z,8.85
2018-12-01T03:33:47.434Z,8.83
2018-12-01T03:34:47.422Z,8.85
2018-12-01T03:35:47.411Z,8.89
2018-12-01T03:36:47.402Z,8.85
2018-12-01T03:37:47.397Z,8.85
2018-12-01T03:38:47.389Z,8.79
2018-12-01T03:39:47.376Z,8.83
2018-12-01T03:40:47.370Z,8.82
2018-12-01T03:41:47.352Z,8.85
2018-12-01T03:42:47.344Z,8.88
2018-12-01T03:43:47.338Z,8.82
2018-12-01T03:44:47.327Z,8.85
2018-12-01T03:45:47.312Z,8.83
2018-12-01T03:46:47.303Z,8.85
2018-12-01T03:47:47.294Z,8.82
2018-12-01T03:48:47.282Z,8.76
2018-12-01T03:49:47.277Z,8.79
2018-12-01T03:50:47.268Z,8.83
2018-12-01T03:51:47.257Z,8.75
2018-12-01T03:52:47.247Z,8.70
2018-12-01T03:53:47.233Z,8.73
2018-12-01T03:54:47.223Z,8.71
2018-12-01T03:55:47.212Z,8.79
2018-12-01T03:56:47.203Z,8.71
2018-12-01T03:57:47.198Z,8.76
2018-12-01T03:58:47.187Z,8.65
2018-12-01T03:59:47.172Z,8.76
2018-12-01T04:00:47.163Z,8.70
2018-12-01T04:01:47.157Z,8.60
2018-12-01T04:02:47.148Z,8.71
2018-12-01T04:03:47.140Z,8.67
2018-12-01T04:04:47.128Z,8.63
2018-12-01T04:05:47.113Z,8.64
2018-12-01T04:06:47.104Z,8.63
2018-12-01T04:07:47.093Z,8.61
2018-12-01T04:08:47.083Z,8.52
2018-12-01T04:09:47.078Z,8.61
2018-12-01T04:10:47.068Z,8.57
2018-12-01T04:11:47.058Z,8.61
2018-12-01T04:12:47.047Z,8.64
2018-12-01T04:13:47.032Z,8.64
2018-12-01T04:14:47.023Z,8.63
2018-12-01T04:15:47.018Z,8.65
2018-12-01T04:16:47.006Z,8.68
2018-12-01T04:17:46.991Z,8.63
2018-12-01T04:18:46.981Z,8.63
2018-12-01T04:19:46.974Z,8.58
2018-12-01T04:20:46.962Z,8.57
2018-12-01T04:21:46.957Z,8.65
2018-12-01T04:22:46.947Z,8.65
2018-12-01T04:23:46.935Z,8.70
2018-12-01T04:24:46.926Z,8.65
2018-12-01T04:25:46.916Z,8.75
2018-12-01T04:26:46.901Z,8.70
2018-12-01T04:27:46.890Z,8.71
2018-12-01T04:28:46.881Z,8.75
2018-12-01T04:29:46.877Z,8.80
2018-12-01T04:30:46.867Z,8.75
2018-12-01T04:31:46.851Z,8.79
2018-12-01T04:32:46.841Z,8.70
2018-12-01T04:33:46.836Z,8.82
2018-12-01T04:34:46.828Z,8.71
2018-12-01T04:35:46.815Z,8.78
2018-12-01T04:36:46.807Z,8.79
2018-12-01T04:37:46.793Z,8.75
2018-12-01T04:38:46.782Z,8.75
2018-12-01T04:39:46.774Z,8.71
2018-12-01T04:40:46.762Z,8.70
2018-12-01T04:41:46.759Z,8.63
2018-12-01T04:42:46.747Z,8.71
2018-12-01T04:43:46.738Z,8.70
2018-12-01T04:44:46.727Z,8.61
2018-12-01T04:45:46.712Z,8.65
2018-12-01T04:46:46.703Z,8.61
2018-12-01T04:47:46.699Z,8.65
2018-12-01T04:48:46.687Z,8.61
2018-12-01T04:49:46.673Z,8.61
2018-12-01T04:50:46.662Z,8.58
2018-12-01T04:51:46.652Z,8.58
2018-12-01T04:52:46.644Z,8.58
2018-12-01T04:53:46.636Z,8.55
2018-12-01T04:54:46.627Z,8.67
2018-12-01T04:55:46.616Z,8.65
2018-12-01T04:56:46.608Z,8.67
2018-12-01T04:57:46.592Z,8.76
2018-12-01T04:58:46.583Z,8.75
2018-12-01T04:59:46.573Z,8.71
2018-12-01T05:00:46.563Z,8.68
2018-12-01T05:01:46.557Z,8.73
2018-12-01T05:02:46.548Z,8.82
2018-12-01T05:03:46.534Z,8.76
2018-12-01T05:04:46.528Z,8.79
2018-12-01T05:05:46.518Z,8.68
2018-12-01T05:06:46.509Z,8.76
2018-12-01T05:07:46.504Z,8.68
2018-12-01T05:08:46.488Z,8.73
2018-12-01T05:09:46.473Z,8.68
2018-12-01T05:10:46.465Z,8.70
2018-12-01T05:11:46.456Z,8.67
2018-12-01T05:12:46.444Z,8.57
2018-12-01T05:13:46.440Z,8.60
2018-12-01T05:14:46.429Z,8.60
2018-12-01T05:15:46.420Z,8.58
2018-12-01T05:16:46.412Z,8.57
2018-12-01T05:17:46.396Z,8.54
2018-12-01T05:18:46.385Z,8.49
2018-12-01T05:19:46.380Z,8.49
2018-12-01T05:20:46.371Z,8.50
2018-12-01T05:21:46.357Z,8.43
2018-12-01T05:22:46.346Z,8.54
2018-12-01T05:23:46.340Z,8.46
2018-12-01T05:24:46.324Z,8.46
2018-12-01T05:25:46.319Z,8.46
2018-12-01T05:26:46.310Z,8.42
2018-12-01T05:27:46.301Z,8.46
2018-12-01T05:28:46.289Z,8.43
2018-12-01T05:29:46.274Z,8.36
2018-12-01T05:30:46.267Z,8.47
2018-12-01T05:31:46.253Z,8.42
2018-12-01T05:32:46.243Z,8.36
2018-12-01T05:33:46.238Z,8.32
2018-12-01T05:34:46.227Z,8.36
2018-12-01T05:35:46.213Z,8.36
2018-12-01T05:36:46.204Z,8.36
2018-12-01T05:37:46.197Z,8.32
2018-12-01T05:38:46.187Z,8.34
2018-12-01T05:39:46.176Z,8.36
2018-12-01T05:40:46.166Z,8.32
2018-12-01T05:41:46.151Z,8.28
2018-12-01T05:42:46.141Z,8.27
2018-12-01T05:43:46.131Z,8.27
2018-12-01T05:44:46.120Z,8.24
2018-12-01T05:45:46.116Z,8.22
2018-12-01T05:46:46.104Z,8.22
2018-12-01T05:47:46.093Z,8.14
2018-12-01T05:48:46.083Z,8.18
2018-12-01T05:49:46.069Z,8.21
2018-12-01T05:50:46.058Z,8.21
2018-12-01T05:51:46.052Z,8.20
2018-12-01T05:52:46.042Z,8.17
2018-12-01T05:53:46.027Z,8.17
2018-12-01T05:54:46.017Z,8.10
2018-12-01T05:55:46.007Z,8.20
2018-12-01T05:56:45.997Z,8.21
2018-12-01T05:57:45.992Z,8.14
2018-12-01T05:58:45.981Z,8.20
2018-12-01T05:59:45.970Z,8.07
2018-12-01T06:00:45.959Z,8.17
2018-12-01T06:01:45.949Z,8.10
2018-12-01T06:02:45.934Z,8.25
2018-12-01T06:03:45.923Z,8.14
2018-12-01T06:04:45.913Z,8.07
2018-12-01T06:05:45.910Z,8.09
2018-12-01T06:06:45.898Z,8.13
2018-12-01T06:07:45.892Z,8.10
2018-12-01T06:08:45.871Z,8.21
2018-12-01T06:09:45.866Z,8.21
2018-12-01T06:10:45.856Z,8.03
2018-12-01T06:11:45.846Z,8.17
2018-12-01T06:12:45.835Z,8.17
2018-12-01T06:13:45.820Z,8.17
2018-12-01T06:14:45.810Z,8.25
2018-12-01T06:15:45.800Z,8.28
2018-12-01T06:16:45.792Z,8.28
2018-12-01T06:17:45.784Z,8.27
2018-12-01T06:18:45.773Z,8.27
2018-12-01T06:19:45.761Z,8.25
2018-12-01T06:20:45.750Z,8.22
2018-12-01T06:21:45.738Z,8.21
2018-12-01T06:22:45.726Z,8.25
2018-12-01T06:23:45.721Z,8.25
2018-12-01T06:24:45.709Z,8.27
2018-12-01T06:25:45.705Z,8.22
2018-12-01T06:26:45.684Z,8.17
2018-12-01T06:27:45.674Z,8.09
2018-12-01T06:28:45.663Z,8.09
2018-12-01T06:29:45.658Z,8.20
2018-12-01T06:30:45.648Z,8.09
2018-12-01T06:31:45.637Z,8.14
2018-12-01T06:32:45.626Z,8.21
2018-12-01T06:33:45.612Z,8.12
2018-12-01T06:34:45.602Z,8.14
2018-12-01T06:35:45.596Z,8.07
2018-12-01T06:36:45.580Z,8.09
2018-12-01T06:37:45.573Z,8.17
2018-12-01T06:38:45.563Z,8.17
2018-12-01T06:39:45.547Z,8.14
2018-12-01T06:40:45.537Z,8.17
2018-12-01T06:41:45.531Z,8.14
2018-12-01T06:42:45.522Z,8.04
2018-12-01T06:43:45.511Z,8.07
2018-12-01T06:44:45.501Z,8.17
2018-12-01T06:45:45.486Z,8.14
2018-12-01T06:46:45.475Z,8.13
2018-12-01T06:47:45.464Z,8.06
2018-12-01T06:48:45.457Z,8.13
2018-12-01T06:49:45.452Z,8.04
2018-12-01T06:50:45.439Z,8.13
2018-12-01T06:51:45.428Z,8.13
2018-12-01T06:52:45.418Z,8.14
2018-12-01T06:53:45.402Z,8.07
2018-12-01T06:54:45.392Z,8.12
2018-12-01T06:55:45.385Z,8.12
2018-12-01T06:56:45.375Z,8.18
2018-12-01T06:57:45.362Z,8.09
2018-12-01T06:58:45.350Z,8.09
2018-12-01T06:59:45.340Z,8.18
2018-12-01T07:00:45.333Z,8.09
2018-12-01T07:01:45.323Z,8.20
2018-12-01T07:02:45.314Z,8.20
2018-12-01T07:03:45.306Z,8.20
2018-12-01T07:04:45.292Z,8.20
2018-12-01T07:05:45.279Z,8.21
2018-12-01T07:06:45.269Z,8.24
2018-12-01T07:07:45.257Z,8.17
2018-12-01T07:08:45.247Z,8.22
2018-12-01T07:09:45.241Z,8.24
2018-12-01T07:10:45.233Z,8.27
2018-12-01T07:11:45.215Z,8.29
2018-12-01T07:12:45.205Z,8.31
2018-12-01T07:13:45.199Z,8.36
2018-12-01T07:14:45.189Z,8.28
2018-12-01T07:15:45.179Z,8.27
2018-12-01T07:16:45.168Z,8.27
2018-12-01T07:17:45.155Z,8.32
2018-12-01T07:18:45.145Z,8.36
2018-12-01T07:19:45.133Z,8.37
2018-12-01T07:20:45.123Z,8.31
2018-12-01T07:21:45.122Z,8.34
2018-12-01T07:22:45.111Z,8.45
2018-12-01T07:23:45.097Z,8.43
2018-12-01T07:24:45.086Z,8.43
2018-12-01T07:25:45.072Z,8.36
2018-12-01T07:26:45.062Z,8.43
2018-12-01T07:27:45.065Z,8.43
2018-12-01T07:28:45.045Z,8.43
2018-12-01T07:29:45.031Z,8.39
2018-12-01T07:30:45.021Z,8.45
2018-12-01T07:31:45.053Z,8.45
2018-12-01T07:32:45.001Z,8.42
2018-12-01T07:33:44.997Z,8.42
2018-12-01T07:34:44.986Z,8.42
2018-12-01T07:35:44.975Z,8.42
2018-12-01T07:36:44.964Z,8.45
2018-12-01T07:37:44.950Z,8.45
2018-12-01T07:38:44.941Z,8.39
2018-12-01T07:39:44.929Z,8.42
2018-12-01T07:40:44.920Z,8.37
2018-12-01T07:41:44.916Z,8.39
2018-12-01T07:42:44.905Z,8.39
2018-12-01T07:43:44.889Z,8.42
2018-12-01T07:44:44.882Z,8.39
2018-12-01T07:45:44.876Z,8.39
2018-12-01T07:46:44.864Z,8.39
2018-12-01T07:47:44.855Z,8.45
2018-12-01T07:48:44.843Z,8.42
2018-12-01T07:49:44.830Z,8.45
2018-12-01T07:50:44.820Z,8.46
2018-12-01T07:51:44.810Z,8.42
2018-12-01T07:52:44.824Z,8.40
2018-12-01T07:53:44.795Z,8.40
2018-12-01T07:54:44.784Z,8.39
2018-12-01T07:55:44.776Z,8.40
2018-12-01T07:56:44.805Z,8.46
2018-12-01T07:57:44.749Z,8.39
2018-12-01T07:58:44.741Z,8.46
2018-12-01T07:59:44.736Z,8.50
2018-12-01T08:00:44.764Z,8.45
2018-12-01T08:01:44.711Z,8.52
2018-12-01T08:02:44.703Z,8.52
2018-12-01T08:03:44.693Z,8.47
2018-12-01T08:04:44.681Z,8.57
2018-12-01T08:05:44.674Z,8.58
2018-12-01T08:06:44.664Z,8.58
2018-12-01T08:07:44.656Z,8.58
2018-12-01T08:08:44.644Z,8.58
2018-12-01T08:09:44.631Z,8.57
2018-12-01T08:10:44.620Z,8.64
2018-12-01T08:11:44.610Z,8.63
2018-12-01T08:12:44.603Z,8.61
2018-12-01T08:13:44.595Z,8.50
2018-12-01T08:14:44.587Z,8.55
2018-12-01T08:15:44.571Z,8.52
2018-12-01T08:16:44.563Z,8.58
2018-12-01T08:17:44.559Z,8.58
2018-12-01T08:18:44.549Z,8.54
2018-12-01T08:19:44.537Z,8.54
2018-12-01T08:20:44.528Z,8.57
2018-12-01T08:21:44.514Z,8.60
2018-12-01T08:22:44.504Z,8.63
2018-12-01T08:23:44.494Z,8.68
2018-12-01T08:24:44.487Z,8.68
2018-12-01T08:25:44.481Z,8.68
2018-12-01T08:26:44.474Z,8.68
2018-12-01T08:27:44.461Z,8.71
2018-12-01T08:28:44.453Z,8.73
2018-12-01T08:29:44.438Z,8.78
2018-12-01T08:30:44.429Z,8.80
2018-12-01T08:31:44.425Z,8.82
2018-12-01T08:32:44.415Z,8.86
2018-12-01T08:33:44.400Z,8.82
2018-12-01T08:34:44.391Z,8.82
2018-12-01T08:35:44.384Z,8.85
2018-12-01T08:36:44.373Z,8.86
2018-12-01T08:37:44.369Z,8.82
2018-12-01T08:38:44.359Z,8.80
2018-12-01T08:39:44.350Z,8.86
2018-12-01T08:40:44.340Z,8.86
2018-12-01T08:41:44.329Z,8.91
2018-12-01T08:42:44.317Z,9.03
2018-12-01T08:43:45.155Z,9.01
2018-12-01T08:44:44.298Z,9.03
2018-12-01T08:45:44.294Z,9.13
2018-12-01T08:46:44.285Z,9.16
2018-12-01T08:47:44.271Z,9.16
2018-12-01T08:48:44.262Z,9.26
2018-12-01T08:49:44.541Z,9.27
2018-12-01T08:50:44.248Z,9.32
2018-12-01T08:51:44.240Z,9.41
2018-12-01T08:52:44.232Z,9.48
2018-12-01T08:53:44.217Z,9.45
2018-12-01T08:54:44.207Z,9.48
2018-12-01T08:55:44.198Z,9.58
2018-12-01T08:56:44.191Z,9.65
2018-12-01T08:57:44.188Z,9.65
2018-12-01T08:58:44.179Z,9.77
2018-12-01T08:59:44.168Z,9.67
2018-12-01T09:00:44.160Z,9.60
2018-12-01T09:01:44.147Z,9.62
2018-12-01T09:02:44.138Z,9.65
2018-12-01T09:03:44.135Z,9.78
2018-12-01T09:04:44.125Z,9.73
2018-12-01T09:05:44.112Z,9.73
2018-12-01T09:06:44.108Z,9.77
2018-12-01T09:07:44.095Z,9.74
2018-12-01T09:08:44.089Z,9.71
2018-12-01T09:09:44.085Z,9.77
2018-12-01T09:10:44.076Z,9.91
2018-12-01T09:11:44.073Z,9.91
2018-12-01T09:12:44.060Z,9.95
2018-12-01T09:13:44.047Z,10.09
2018-12-01T09:14:44.040Z,10.10
2018-12-01T09:15:44.030Z,10.20
2018-12-01T09:16:44.023Z,10.10
2018-12-01T09:17:44.019Z,9.88
2018-12-01T09:18:44.011Z,9.77
2018-12-01T09:19:43.997Z,9.74
2018-12-01T09:20:43.990Z,9.85
2018-12-01T09:21:43.986Z,9.92
2018-12-01T09:22:43.978Z,9.92
2018-12-01T09:23:43.970Z,9.74
2018-12-01T09:24:43.963Z,9.75
2018-12-01T09:25:43.951Z,9.83
2018-12-01T09:26:43.944Z,9.98
2018-12-01T09:27:43.933Z,10.25
2018-12-01T09:28:43.925Z,10.49
2018-12-01T09:29:43.923Z,10.87
2018-12-01T09:30:43.915Z,11.19
2018-12-01T09:31:43.908Z,11.56
2018-12-01T09:32:43.897Z,11.63
2018-12-01T09:33:43.886Z,12.07
2018-12-01T09:34:43.879Z,12.13
2018-12-01T09:35:43.874Z,11.90
2018-12-01T09:36:43.868Z,11.81
2018-12-01T09:37:43.857Z,11.96
2018-12-01T09:38:43.850Z,12.40
2018-12-01T09:39:43.844Z,12.46
2018-12-01T09:40:43.836Z,12.63
2018-12-01T09:41:43.837Z,12.91
2018-12-01T09:42:43.830Z,13.43
2018-12-01T09:43:43.823Z,12.96
2018-12-01T09:44:43.823Z,12.96
2018-12-01T09:45:43.810Z,12.95
2018-12-01T09:46:43.803Z,12.79
2018-12-01T09:47:43.796Z,13.01
2018-12-01T09:48:43.797Z,12.66
2018-12-01T09:49:43.793Z,12.25
2018-12-01T09:50:43.789Z,12.11
2018-12-01T09:51:43.777Z,12.31
2018-12-01T09:52:43.775Z,13.21
2018-12-01T09:53:43.773Z,13.16
2018-12-01T09:54:43.769Z,13.38
2018-12-01T09:55:43.766Z,13.28
2018-12-01T09:56:43.758Z,13.73
2018-12-01T09:57:43.752Z,14.29
2018-12-01T09:58:43.747Z,14.78
2018-12-01T09:59:43.742Z,14.57
2018-12-01T10:00:43.737Z,14.08
2018-12-01T10:01:43.738Z,14.29
2018-12-01T10:02:43.738Z,14.11
2018-12-01T10:03:43.732Z,14.71
2018-12-01T10:04:43.729Z,14.53
2018-12-01T10:05:43.720Z,13.51
2018-12-01T10:06:43.718Z,13.36
2018-12-01T10:07:43.718Z,13.27
2018-12-01T10:08:43.715Z,13.28
2018-12-01T10:09:43.708Z,13.27
2018-12-01T10:10:43.705Z,13.83
2018-12-01T10:11:43.702Z,13.68
2018-12-01T10:12:43.698Z,13.90
2018-12-01T10:13:43.701Z,13.86
2018-12-01T10:14:43.698Z,14.05
2018-12-01T10:15:43.699Z,13.55
2018-12-01T10:16:43.691Z,13.59
2018-12-01T10:17:43.685Z,14.06
2018-12-01T10:18:43.682Z,14.17
2018-12-01T10:19:43.678Z,14.02
2018-12-01T10:20:43.679Z,14.11
2018-12-01T10:21:43.684Z,14.21
2018-12-01T10:22:43.676Z,13.84
2018-12-01T10:23:43.670Z,13.13
2018-12-01T10:24:43.665Z,12.92
2018-12-01T10:25:43.666Z,13.01
2018-12-01T10:26:43.664Z,12.79
2018-12-01T10:27:43.665Z,12.74
2018-12-01T10:28:43.658Z,12.30
2018-12-01T10:29:43.648Z,12.22
2018-12-01T10:30:43.646Z,12.23
2018-12-01T10:31:43.640Z,12.66
2018-12-01T10:32:43.637Z,13.03
2018-12-01T10:33:43.637Z,12.56
2018-12-01T10:34:43.633Z,12.18
2018-12-01T10:35:43.629Z,12.26
2018-12-01T10:36:43.626Z,12.07
2018-12-01T10:37:43.616Z,12.07
2018-12-01T10:38:43.611Z,11.94
2018-12-01T10:39:43.612Z,12.01
2018-12-01T10:40:43.607Z,11.70
2018-12-01T10:41:43.597Z,11.70
2018-12-01T10:42:43.595Z,11.77
2018-12-01T10:43:43.598Z,11.66
2018-12-01T10:44:43.581Z,11.69
2018-12-01T10:45:43.581Z,11.66
2018-12-01T10:46:43.575Z,11.70
2018-12-01T10:47:43.569Z,11.66
2018-12-01T10:48:43.563Z,11.56
2018-12-01T10:49:43.554Z,11.62
2018-12-01T10:50:43.548Z,11.66
2018-12-01T10:51:43.541Z,11.64
2018-12-01T10:52:43.536Z,11.59
2018-12-01T10:53:43.536Z,11.56
2018-12-01T10:54:43.529Z,11.59
2018-12-01T10:55:43.517Z,11.64
2018-12-01T10:56:43.511Z,11.70
2018-12-01T10:57:43.509Z,11.64
2018-12-01T10:58:43.504Z,11.59
2018-12-01T10:59:43.522Z,11.62
2018-12-01T11:00:43.492Z,11.57
2018-12-01T11:01:43.480Z,11.70
2018-12-01T11:02:43.474Z,11.75
2018-12-01T11:03:43.466Z,11.79
2018-12-01T11:04:43.459Z,12.00
2018-12-01T11:05:43.458Z,12.26
2018-12-01T11:06:43.452Z,12.44
2018-12-01T11:07:43.443Z,12.51
2018-12-01T11:08:43.436Z,12.48
2018-12-01T11:09:43.425Z,12.48
2018-12-01T11:10:43.421Z,12.62
2018-12-01T11:11:43.421Z,12.73
2018-12-01T11:12:43.411Z,12.76
2018-12-01T11:13:43.400Z,12.85
2018-12-01T11:14:43.394Z,13.09
2018-12-01T11:15:43.388Z,13.14
2018-12-01T11:16:43.382Z,13.27
2018-12-01T11:17:43.381Z,13.53
2018-12-01T11:18:43.375Z,13.39
2018-12-01T11:19:43.369Z,13.12
2018-12-01T11:20:43.364Z,12.74
2018-12-01T11:21:43.352Z,12.48
2018-12-01T11:22:43.347Z,12.31
2018-12-01T11:23:43.340Z,12.33
2018-12-01T11:24:43.338Z,12.23
2018-12-01T11:25:43.333Z,12.18
2018-12-01T11:26:43.327Z,12.15
2018-12-01T11:27:43.316Z,12.12
2018-12-01T11:28:43.309Z,12.03
2018-12-01T11:29:43.307Z,12.07
2018-12-01T11:30:43.302Z,12.07
2018-12-01T11:31:43.300Z,12.21
2018-12-01T11:32:43.290Z,12.15
2018-12-01T11:33:43.278Z,12.25
2018-12-01T11:34:43.272Z,12.34
2018-12-01T11:35:43.264Z,12.23
2018-12-01T11:36:43.259Z,12.30
2018-12-01T11:37:43.258Z,12.26
2018-12-01T11:38:43.253Z,12.37
2018-12-01T11:39:43.243Z,12.40
2018-12-01T11:40:43.237Z,12.23
2018-12-01T11:41:43.226Z,12.21
2018-12-01T11:42:43.220Z,12.23
2018-12-01T11:43:43.217Z,12.18
2018-12-01T11:44:43.211Z,12.29
2018-12-01T11:45:43.201Z,12.40
2018-12-01T11:46:43.194Z,12.31
2018-12-01T11:47:43.188Z,12.49
2018-12-01T11:48:43.181Z,12.49
2018-12-01T11:49:43.189Z,12.51
2018-12-01T11:50:43.174Z,12.54
2018-12-01T11:51:43.166Z,12.55
2018-12-01T11:52:43.160Z,12.69
2018-12-01T11:53:43.150Z,12.67
2018-12-01T11:54:43.144Z,12.76
2018-12-01T11:55:43.139Z,12.92
2018-12-01T11:56:43.132Z,12.87
2018-12-01T11:57:43.129Z,12.88
2018-12-01T11:58:43.123Z,12.89
2018-12-01T11:59:43.113Z,13.07
2018-12-01T12:00:43.106Z,13.19
2018-12-01T12:01:43.110Z,13.13
2018-12-01T12:02:43.099Z,13.12
2018-12-01T12:03:43.092Z,13.07
2018-12-01T12:04:43.087Z,12.80
2018-12-01T12:05:43.077Z,12.80
2018-12-01T12:06:43.071Z,12.66
2018-12-01T12:07:43.065Z,12.58
2018-12-01T12:08:43.060Z,12.52
2018-12-01T12:09:43.058Z,12.48
2018-12-01T12:10:43.052Z,12.54
2018-12-01T12:11:43.047Z,12.44
2018-12-01T12:12:43.042Z,12.38
2018-12-01T12:13:43.031Z,12.31
2018-12-01T12:14:43.025Z,12.48
2018-12-01T12:15:43.021Z,12.36
2018-12-01T12:16:43.018Z,12.37
2018-12-01T12:17:43.005Z,12.43
2018-12-01T12:18:43.000Z,12.36
2018-12-01T12:19:42.994Z,12.44
2018-12-01T12:20:42.987Z,12.37
2018-12-01T12:21:42.985Z,12.44
2018-12-01T12:22:42.978Z,12.46
2018-12-01T12:23:42.971Z,12.49
2018-12-01T12:24:42.967Z,12.54
2018-12-01T12:25:42.966Z,12.48
2018-12-01T12:26:42.949Z,12.51
2018-12-01T12:27:42.942Z,12.48
2018-12-01T12:28:42.936Z,12.46
2018-12-01T12:29:42.935Z,12.58
2018-12-01T12:30:42.929Z,12.51
2018-12-01T12:31:42.917Z,12.54
2018-12-01T12:32:42.911Z,12.49
2018-12-01T12:33:42.909Z,12.55
2018-12-01T12:34:42.915Z,12.49
2018-12-01T12:35:42.900Z,12.55
2018-12-01T12:36:42.889Z,12.49
2018-12-01T12:37:42.881Z,12.54
2018-12-01T12:38:42.872Z,12.44
2018-12-01T12:39:42.871Z,12.54
2018-12-01T12:40:42.863Z,12.55
2018-12-01T12:41:42.857Z,12.49
2018-12-01T12:42:42.853Z,12.49
2018-12-01T12:43:42.845Z,12.48
2018-12-01T12:44:42.838Z,12.41
2018-12-01T12:45:42.828Z,12.44
2018-12-01T12:46:42.820Z,12.37
2018-12-01T12:47:42.821Z,12.33
2018-12-01T12:48:42.811Z,12.43
2018-12-01T12:49:42.799Z,12.40
2018-12-01T12:50:42.794Z,12.43
2018-12-01T12:51:42.786Z,12.41
2018-12-01T12:52:43.428Z,12.49
2018-12-01T12:53:42.777Z,12.51
2018-12-01T12:54:42.771Z,12.44
2018-12-01T12:55:42.764Z,12.41
2018-12-01T12:56:42.758Z,12.44
2018-12-01T12:57:42.746Z,12.49
2018-12-01T12:58:42.739Z,12.38
2018-12-01T12:59:42.733Z,12.44
2018-12-01T13:00:42.726Z,12.51
2018-12-01T13:01:42.723Z,12.46
2018-12-01T13:02:42.717Z,12.38
2018-12-01T13:03:42.705Z,12.41
2018-12-01T13:04:42.700Z,12.38
2018-12-01T13:05:42.702Z,12.52
2018-12-01T13:06:42.689Z,12.51
2018-12-01T13:07:42.685Z,12.51
2018-12-01T13:08:42.678Z,12.44
2018-12-01T13:09:42.664Z,12.49
2018-12-01T13:10:42.658Z,12.46